createdAt,value
2018-06-02T00:00:32.869Z,19.02
2018-06-02T00:01:32.887Z,18.99
2018-06-02T00:02:32.922Z,19.05
2018-06-02T00:03:33.063Z,18.99
2018-06-02T00:04:32.924Z,19.05
2018-06-02T00:05:32.962Z,19.02
2018-06-02T00:06:32.966Z,19.13
2018-06-02T00:07:32.994Z,19.09
2018-06-02T00:08:33.157Z,19.15
2018-06-02T00:09:32.996Z,19.15
2018-06-02T00:10:33.007Z,19.25
2018-06-02T00:11:33.024Z,19.17
2018-06-02T00:12:33.049Z,19.20
2018-06-02T00:13:33.047Z,19.24
2018-06-02T00:14:33.210Z,19.20
2018-06-02T00:15:33.081Z,19.24
2018-06-02T00:16:33.099Z,19.23
2018-06-02T00:17:33.134Z,19.19
2018-06-02T00:18:33.152Z,19.24
2018-06-02T00:19:33.283Z,19.25
2018-06-02T00:20:33.149Z,19.20
2018-06-02T00:21:33.189Z,19.30
2018-06-02T00:22:33.178Z,19.24
2018-06-02T00:23:33.187Z,19.24
2018-06-02T00:24:33.381Z,19.20
2018-06-02T00:25:33.228Z,19.16
2018-06-02T00:26:33.232Z,19.17
2018-06-02T00:27:33.264Z,19.15
2018-06-02T00:28:33.262Z,19.12
2018-06-02T00:29:33.439Z,19.15
2018-06-02T00:30:33.320Z,19.05
2018-06-02T00:31:33.334Z,19.12
2018-06-02T00:32:33.327Z,19.07
2018-06-02T00:33:33.341Z,19.10
2018-06-02T00:34:33.511Z,19.12
2018-06-02T00:35:33.364Z,19.07
2018-06-02T00:36:33.405Z,19.05
2018-06-02T00:37:33.422Z,18.97
2018-06-02T00:38:33.403Z,19.00
2018-06-02T00:39:33.574Z,19.05
2018-06-02T00:40:33.454Z,19.05
2018-06-02T00:41:33.475Z,19.09
2018-06-02T00:42:33.492Z,18.90
2018-06-02T00:43:33.501Z,18.86
2018-06-02T00:44:33.641Z,18.94
2018-06-02T00:45:33.505Z,18.81
2018-06-02T00:46:33.518Z,18.81
2018-06-02T00:47:33.530Z,18.86
2018-06-02T00:48:33.540Z,18.86
2018-06-02T00:49:33.706Z,18.75
2018-06-02T00:50:33.573Z,18.75
2018-06-02T00:51:33.585Z,18.69
2018-06-02T00:52:33.608Z,18.65
2018-06-02T00:53:33.629Z,18.68
2018-06-02T00:54:33.789Z,18.56
2018-06-02T00:55:33.661Z,18.50
2018-06-02T00:56:33.662Z,18.63
2018-06-02T00:57:33.684Z,18.54
2018-06-02T00:58:33.691Z,18.49
2018-06-02T00:59:33.712Z,18.41
2018-06-02T01:00:33.708Z,18.38
2018-06-02T01:01:33.744Z,18.41
2018-06-02T01:02:33.740Z,18.29
2018-06-02T01:03:33.755Z,18.31
2018-06-02T01:04:33.870Z,18.31
2018-06-02T01:05:33.796Z,18.21
2018-06-02T01:06:33.821Z,18.14
2018-06-02T01:07:33.807Z,17.96
2018-06-02T01:08:33.854Z,17.98
2018-06-02T01:09:34.001Z,17.96
2018-06-02T01:10:33.851Z,17.92
2018-06-02T01:11:33.895Z,17.87
2018-06-02T01:12:33.880Z,17.83
2018-06-02T01:13:33.904Z,17.79
2018-06-02T01:14:34.112Z,17.92
2018-06-02T01:15:33.942Z,17.87
2018-06-02T01:16:33.929Z,17.88
2018-06-02T01:17:33.955Z,17.88
2018-06-02T01:18:33.952Z,17.81
2018-06-02T01:19:34.131Z,17.84
2018-06-02T01:20:33.986Z,17.88
2018-06-02T01:21:34.031Z,17.86
2018-06-02T01:22:34.042Z,17.87
2018-06-02T01:23:34.028Z,17.87
2018-06-02T01:24:34.068Z,17.88
2018-06-02T01:25:34.231Z,17.83
2018-06-02T01:26:34.067Z,17.84
2018-06-02T01:27:34.091Z,17.87
2018-06-02T01:28:34.101Z,17.87
2018-06-02T01:29:34.106Z,17.84
2018-06-02T01:30:34.296Z,17.88
2018-06-02T01:31:34.135Z,17.80
2018-06-02T01:32:34.154Z,17.79
2018-06-02T01:33:34.155Z,17.84
2018-06-02T01:34:34.201Z,17.69
2018-06-02T01:35:34.370Z,17.76
2018-06-02T01:36:34.204Z,17.68
2018-06-02T01:37:34.243Z,17.66
2018-06-02T01:38:34.230Z,17.65
2018-06-02T01:39:34.266Z,17.66
2018-06-02T01:40:34.419Z,17.62
2018-06-02T01:41:34.270Z,17.58
2018-06-02T01:42:34.281Z,17.50
2018-06-02T01:43:34.303Z,17.55
2018-06-02T01:44:34.320Z,17.55
2018-06-02T01:45:34.502Z,17.52
2018-06-02T01:46:34.334Z,17.50
2018-06-02T01:47:34.349Z,17.45
2018-06-02T01:48:34.369Z,17.45
2018-06-02T01:49:34.382Z,17.38
2018-06-02T01:50:34.533Z,17.39
2018-06-02T01:51:34.430Z,17.36
2018-06-02T01:52:34.427Z,17.39
2018-06-02T01:53:34.441Z,17.28
2018-06-02T01:54:34.448Z,17.36
2018-06-02T01:55:34.616Z,17.38
2018-06-02T01:56:34.465Z,17.32
2018-06-02T01:57:34.489Z,17.22
2018-06-02T01:58:34.500Z,17.36
2018-06-02T01:59:34.510Z,17.22
2018-06-02T02:00:34.672Z,17.27
2018-06-02T02:01:34.537Z,17.25
2018-06-02T02:02:34.552Z,17.25
2018-06-02T02:03:34.564Z,17.21
2018-06-02T02:04:34.575Z,17.20
2018-06-02T02:05:34.732Z,17.30
2018-06-02T02:06:34.631Z,17.22
2018-06-02T02:07:34.612Z,17.24
2018-06-02T02:08:34.675Z,17.17
2018-06-02T02:09:34.670Z,17.22
2018-06-02T02:10:34.832Z,17.22
2018-06-02T02:11:34.663Z,17.28
2018-06-02T02:12:34.707Z,17.24
2018-06-02T02:13:34.720Z,17.24
2018-06-02T02:14:34.717Z,17.31
2018-06-02T02:15:34.893Z,17.24
2018-06-02T02:16:34.743Z,17.22
2018-06-02T02:17:34.773Z,17.12
2018-06-02T02:18:34.751Z,17.22
2018-06-02T02:19:34.772Z,17.17
2018-06-02T02:20:34.961Z,17.20
2018-06-02T02:21:34.798Z,17.13
2018-06-02T02:22:34.836Z,17.21
2018-06-02T02:23:34.825Z,17.25
2018-06-02T02:24:34.844Z,17.36
2018-06-02T02:25:35.027Z,17.28
2018-06-02T02:26:34.886Z,17.32
2018-06-02T02:27:34.907Z,17.36
2018-06-02T02:28:34.916Z,17.36
2018-06-02T02:29:34.928Z,17.35
2018-06-02T02:30:35.082Z,17.22
2018-06-02T02:31:34.927Z,17.20
2018-06-02T02:32:34.971Z,17.25
2018-06-02T02:33:34.986Z,17.30
2018-06-02T02:34:34.995Z,17.30
2018-06-02T02:35:35.007Z,17.13
2018-06-02T02:36:35.172Z,17.12
2018-06-02T02:37:35.014Z,17.13
2018-06-02T02:38:35.021Z,17.17
2018-06-02T02:39:35.032Z,17.13
2018-06-02T02:40:35.065Z,17.24
2018-06-02T02:41:35.233Z,17.22
2018-06-02T02:42:35.082Z,17.24
2018-06-02T02:43:35.087Z,17.24
2018-06-02T02:44:35.102Z,17.30
2018-06-02T02:45:35.105Z,17.24
2018-06-02T02:46:35.292Z,17.35
2018-06-02T02:47:35.136Z,17.27
2018-06-02T02:48:35.176Z,17.24
2018-06-02T02:49:35.189Z,17.22
2018-06-02T02:50:35.174Z,17.24
2018-06-02T02:51:35.352Z,17.15
2018-06-02T02:52:35.231Z,17.15
2018-06-02T02:53:35.212Z,17.20
2018-06-02T02:54:35.254Z,17.20
2018-06-02T02:55:35.272Z,17.25
2018-06-02T02:56:35.387Z,17.21
2018-06-02T02:57:35.294Z,17.12
2018-06-02T02:58:35.282Z,17.15
2018-06-02T02:59:35.323Z,17.24
2018-06-02T03:00:35.307Z,17.10
2018-06-02T03:01:35.437Z,17.17
2018-06-02T03:02:35.333Z,17.15
2018-06-02T03:03:35.345Z,17.15
2018-06-02T03:04:35.363Z,17.12
2018-06-02T03:05:35.396Z,17.17
2018-06-02T03:06:35.562Z,17.17
2018-06-02T03:07:35.400Z,17.15
2018-06-02T03:08:35.437Z,17.13
2018-06-02T03:09:35.450Z,17.22
2018-06-02T03:10:35.462Z,17.12
2018-06-02T03:11:35.561Z,17.22
2018-06-02T03:12:35.463Z,17.24
2018-06-02T03:13:35.492Z,17.24
2018-06-02T03:14:35.491Z,17.25
2018-06-02T03:15:35.500Z,17.31
2018-06-02T03:16:35.642Z,17.36
2018-06-02T03:17:35.527Z,17.32
2018-06-02T03:18:35.564Z,17.38
2018-06-02T03:19:35.557Z,17.35
2018-06-02T03:20:35.595Z,17.28
2018-06-02T03:21:35.728Z,17.35
2018-06-02T03:22:35.602Z,17.35
2018-06-02T03:23:35.608Z,17.36
2018-06-02T03:24:35.631Z,17.32
2018-06-02T03:25:35.656Z,17.36
2018-06-02T03:26:35.647Z,17.45
2018-06-02T03:27:35.685Z,17.38
2018-06-02T03:28:35.668Z,17.36
2018-06-02T03:29:35.707Z,17.42
2018-06-02T03:30:35.723Z,17.35
2018-06-02T03:31:35.858Z,17.39
2018-06-02T03:32:35.747Z,17.27
2018-06-02T03:33:35.748Z,17.35
2018-06-02T03:34:35.745Z,17.32
2018-06-02T03:35:35.767Z,17.31
2018-06-02T03:36:35.927Z,17.30
2018-06-02T03:37:35.782Z,17.35
2018-06-02T03:38:35.798Z,17.31
2018-06-02T03:39:35.820Z,17.28
2018-06-02T03:40:35.823Z,17.35
2018-06-02T03:41:36.014Z,17.30
2018-06-02T03:42:35.853Z,17.38
2018-06-02T03:43:35.866Z,17.31
2018-06-02T03:44:35.907Z,17.36
2018-06-02T03:45:35.901Z,17.31
2018-06-02T03:46:36.048Z,17.36
2018-06-02T03:47:35.915Z,17.38
2018-06-02T03:48:35.953Z,17.24
2018-06-02T03:49:35.941Z,17.24
2018-06-02T03:50:35.978Z,17.30
2018-06-02T03:51:35.992Z,17.24
2018-06-02T03:52:36.156Z,17.20
2018-06-02T03:53:35.988Z,17.25
2018-06-02T03:54:36.035Z,17.20
2018-06-02T03:55:36.031Z,17.27
2018-06-02T03:56:36.032Z,17.22
2018-06-02T03:57:36.207Z,17.28
2018-06-02T03:58:36.088Z,17.24
2018-06-02T03:59:36.070Z,17.22
2018-06-02T04:00:36.109Z,17.25
2018-06-02T04:01:36.097Z,17.15
2018-06-02T04:02:36.267Z,17.21
2018-06-02T04:03:36.148Z,17.12
2018-06-02T04:04:36.134Z,17.07
2018-06-02T04:05:36.173Z,17.13
2018-06-02T04:06:36.176Z,17.10
2018-06-02T04:07:36.349Z,17.03
2018-06-02T04:08:36.181Z,16.99
2018-06-02T04:09:36.225Z,17.00
2018-06-02T04:10:36.211Z,16.94
2018-06-02T04:11:36.226Z,16.94
2018-06-02T04:12:36.414Z,16.95
2018-06-02T04:13:36.263Z,16.87
2018-06-02T04:14:36.279Z,16.90
2018-06-02T04:15:36.287Z,16.81
2018-06-02T04:16:36.288Z,16.82
2018-06-02T04:17:36.466Z,16.81
2018-06-02T04:18:36.317Z,16.82
2018-06-02T04:19:36.338Z,16.81
2018-06-02T04:20:36.341Z,16.72
2018-06-02T04:21:36.357Z,16.73
2018-06-02T04:22:36.520Z,16.70
2018-06-02T04:23:36.382Z,16.66
2018-06-02T04:24:36.391Z,16.62
2018-06-02T04:25:36.417Z,16.55
2018-06-02T04:26:36.415Z,16.59
2018-06-02T04:27:36.586Z,16.58
2018-06-02T04:28:36.444Z,16.66
2018-06-02T04:29:36.483Z,16.62
2018-06-02T04:30:36.493Z,16.62
2018-06-02T04:31:36.486Z,16.58
2018-06-02T04:32:36.669Z,16.69
2018-06-02T04:33:36.513Z,16.62
2018-06-02T04:34:36.546Z,16.63
2018-06-02T04:35:36.539Z,16.84
2018-06-02T04:36:36.550Z,16.70
2018-06-02T04:37:36.707Z,16.72
2018-06-02T04:38:36.568Z,16.73
2018-06-02T04:39:36.609Z,16.72
2018-06-02T04:40:36.588Z,16.77
2018-06-02T04:41:36.632Z,16.69
2018-06-02T04:42:36.770Z,16.77
2018-06-02T04:43:36.656Z,16.74
2018-06-02T04:44:36.644Z,16.70
2018-06-02T04:45:36.660Z,16.69
2018-06-02T04:46:36.696Z,16.74
2018-06-02T04:47:36.699Z,16.77
2018-06-02T04:48:36.721Z,16.69
2018-06-02T04:49:36.724Z,16.66
2018-06-02T04:50:36.744Z,16.66
2018-06-02T04:51:36.760Z,16.63
2018-06-02T04:52:36.847Z,16.57
2018-06-02T04:53:36.787Z,16.54
2018-06-02T04:54:36.769Z,16.52
2018-06-02T04:55:36.783Z,16.42
2018-06-02T04:56:36.792Z,16.48
2018-06-02T04:57:36.965Z,16.49
2018-06-02T04:58:36.855Z,16.51
2018-06-02T04:59:36.861Z,16.45
2018-06-02T05:00:36.851Z,16.40
2018-06-02T05:01:36.871Z,16.40
2018-06-02T05:02:36.979Z,16.48
2018-06-02T05:03:36.888Z,16.33
2018-06-02T05:04:36.895Z,16.36
2018-06-02T05:05:36.936Z,16.32
2018-06-02T05:06:36.930Z,16.37
2018-06-02T05:07:36.943Z,16.37
2018-06-02T05:08:36.974Z,16.37
2018-06-02T05:09:36.989Z,16.40
2018-06-02T05:10:36.971Z,16.39
2018-06-02T05:11:36.982Z,16.39
2018-06-02T05:12:37.010Z,16.42
2018-06-02T05:13:37.017Z,16.39
2018-06-02T05:14:37.022Z,16.37
2018-06-02T05:15:37.045Z,16.37
2018-06-02T05:16:37.063Z,16.37
2018-06-02T05:17:37.063Z,16.32
2018-06-02T05:18:37.087Z,16.21
2018-06-02T05:19:37.111Z,16.25
2018-06-02T05:20:37.097Z,16.10
2018-06-02T05:21:37.140Z,16.16
2018-06-02T05:22:37.283Z,16.22
2018-06-02T05:23:37.139Z,16.17
2018-06-02T05:24:37.173Z,16.21
2018-06-02T05:25:37.194Z,16.17
2018-06-02T05:26:37.177Z,16.13
2018-06-02T05:27:37.335Z,16.11
2018-06-02T05:28:37.201Z,16.17
2018-06-02T05:29:37.213Z,16.22
2018-06-02T05:30:37.229Z,16.22
2018-06-02T05:31:37.239Z,16.25
2018-06-02T05:32:37.408Z,16.21
2018-06-02T05:33:37.276Z,16.18
2018-06-02T05:34:37.273Z,16.18
2018-06-02T05:35:37.320Z,16.11
2018-06-02T05:36:37.297Z,16.17
2018-06-02T05:37:37.469Z,16.16
2018-06-02T05:38:37.321Z,16.16
2018-06-02T05:39:37.364Z,16.21
2018-06-02T05:40:37.413Z,16.26
2018-06-02T05:41:37.386Z,16.33
2018-06-02T05:42:37.522Z,16.33
2018-06-02T05:43:37.385Z,16.32
2018-06-02T05:44:37.412Z,16.37
2018-06-02T05:45:37.412Z,16.40
2018-06-02T05:46:37.454Z,16.47
2018-06-02T05:47:37.589Z,16.40
2018-06-02T05:48:37.472Z,16.51
2018-06-02T05:49:37.467Z,16.52
2018-06-02T05:50:37.473Z,16.52
2018-06-02T05:51:37.499Z,16.52
2018-06-02T05:52:37.646Z,16.57
2018-06-02T05:53:37.517Z,16.62
2018-06-02T05:54:37.572Z,16.63
2018-06-02T05:55:37.538Z,16.70
2018-06-02T05:56:37.548Z,16.62
2018-06-02T05:57:37.570Z,16.70
2018-06-02T05:58:37.569Z,16.72
2018-06-02T05:59:37.600Z,16.67
2018-06-02T06:00:37.605Z,16.72
2018-06-02T06:01:37.609Z,16.67
2018-06-02T06:02:37.771Z,16.70
2018-06-02T06:03:37.635Z,16.76
2018-06-02T06:04:37.671Z,16.69
2018-06-02T06:05:37.663Z,16.77
2018-06-02T06:06:37.673Z,16.76
2018-06-02T06:07:37.681Z,16.80
2018-06-02T06:08:37.726Z,16.72
2018-06-02T06:09:37.735Z,16.80
2018-06-02T06:10:37.749Z,16.70
2018-06-02T06:11:37.732Z,16.76
2018-06-02T06:12:37.902Z,16.67
2018-06-02T06:13:37.765Z,16.73
2018-06-02T06:14:37.786Z,16.80
2018-06-02T06:15:37.813Z,16.69
2018-06-02T06:16:37.799Z,16.74
2018-06-02T06:17:37.914Z,16.69
2018-06-02T06:18:37.848Z,16.70
2018-06-02T06:19:37.944Z,16.69
2018-06-02T06:20:37.844Z,16.76
2018-06-02T06:21:37.865Z,16.67
2018-06-02T06:22:38.020Z,16.73
2018-06-02T06:23:37.919Z,16.74
2018-06-02T06:24:37.906Z,16.70
2018-06-02T06:25:37.938Z,16.67
2018-06-02T06:26:37.925Z,16.63
2018-06-02T06:27:37.937Z,16.65
2018-06-02T06:28:38.128Z,16.72
2018-06-02T06:29:37.964Z,16.74
2018-06-02T06:30:38.009Z,16.72
2018-06-02T06:31:38.013Z,16.73
2018-06-02T06:32:37.999Z,16.70
2018-06-02T06:33:38.183Z,16.73
2018-06-02T06:34:38.053Z,16.84
2018-06-02T06:35:38.049Z,16.70
2018-06-02T06:36:38.053Z,16.74
2018-06-02T06:37:38.093Z,16.70
2018-06-02T06:38:38.237Z,16.74
2018-06-02T06:39:38.094Z,16.70
2018-06-02T06:40:38.128Z,16.73
2018-06-02T06:41:38.116Z,16.67
2018-06-02T06:42:38.156Z,16.74
2018-06-02T06:43:38.292Z,16.77
2018-06-02T06:44:38.225Z,16.72
2018-06-02T06:45:38.194Z,16.70
2018-06-02T06:46:38.241Z,16.59
2018-06-02T06:47:38.196Z,16.67
2018-06-02T06:48:38.360Z,16.58
2018-06-02T06:49:38.231Z,16.66
2018-06-02T06:50:38.254Z,16.57
2018-06-02T06:51:38.259Z,16.48
2018-06-02T06:52:38.283Z,16.55
2018-06-02T06:53:38.441Z,16.44
2018-06-02T06:54:38.293Z,16.42
2018-06-02T06:55:38.319Z,16.39
2018-06-02T06:56:38.332Z,16.33
2018-06-02T06:57:38.316Z,16.27
2018-06-02T06:58:38.505Z,16.26
2018-06-02T06:59:38.347Z,16.11
2018-06-02T07:00:38.367Z,16.14
2018-06-02T07:01:38.391Z,16.14
2018-06-02T07:02:38.373Z,16.18
2018-06-02T07:03:38.573Z,16.17
2018-06-02T07:04:38.432Z,16.10
2018-06-02T07:05:38.415Z,16.08
2018-06-02T07:06:38.456Z,16.06
2018-06-02T07:07:38.463Z,16.02
2018-06-02T07:08:38.452Z,16.08
2018-06-02T07:09:38.468Z,16.07
2018-06-02T07:10:38.481Z,15.99
2018-06-02T07:11:38.488Z,15.99
2018-06-02T07:12:38.501Z,16.00
2018-06-02T07:13:38.640Z,16.07
2018-06-02T07:14:38.527Z,16.04
2018-06-02T07:15:38.592Z,16.10
2018-06-02T07:16:38.580Z,16.07
2018-06-02T07:17:38.591Z,16.16
2018-06-02T07:18:38.683Z,16.08
2018-06-02T07:19:38.586Z,16.07
2018-06-02T07:20:38.599Z,15.99
2018-06-02T07:21:38.614Z,16.07
2018-06-02T07:22:38.627Z,16.08
2018-06-02T07:23:38.791Z,16.08
2018-06-02T07:24:38.650Z,16.08
2018-06-02T07:25:38.662Z,16.08
2018-06-02T07:26:38.671Z,15.98
2018-06-02T07:27:38.733Z,16.02
2018-06-02T07:28:38.799Z,16.06
2018-06-02T07:29:38.718Z,16.07
2018-06-02T07:30:38.724Z,15.99
2018-06-02T07:31:38.758Z,15.96
2018-06-02T07:32:38.773Z,16.07
2018-06-02T07:33:38.936Z,16.04
2018-06-02T07:34:38.789Z,16.04
2018-06-02T07:35:38.814Z,16.06
2018-06-02T07:36:38.822Z,16.04
2018-06-02T07:37:38.817Z,16.04
2018-06-02T07:38:38.970Z,16.13
2018-06-02T07:39:38.833Z,16.06
2018-06-02T07:40:38.854Z,16.10
2018-06-02T07:41:38.855Z,16.11
2018-06-02T07:42:38.896Z,16.08
2018-06-02T07:43:38.886Z,16.08
2018-06-02T07:44:39.054Z,16.13
2018-06-02T07:45:38.907Z,16.07
2018-06-02T07:46:38.931Z,16.08
2018-06-02T07:47:38.928Z,16.11
2018-06-02T07:48:38.949Z,16.11
2018-06-02T07:49:38.962Z,16.13
2018-06-02T07:50:39.112Z,15.95
2018-06-02T07:51:39.003Z,16.11
2018-06-02T07:52:38.993Z,16.08
2018-06-02T07:53:39.004Z,16.14
2018-06-02T07:54:39.041Z,16.17
2018-06-02T07:55:39.206Z,16.06
2018-06-02T07:56:39.046Z,16.04
2018-06-02T07:57:39.121Z,16.08
2018-06-02T07:58:39.081Z,16.07
2018-06-02T07:59:39.103Z,16.04
2018-06-02T08:00:39.250Z,16.00
2018-06-02T08:01:39.106Z,15.98
2018-06-02T08:02:39.112Z,15.86
2018-06-02T08:03:39.144Z,15.86
2018-06-02T08:04:39.137Z,15.88
2018-06-02T08:05:39.333Z,15.84
2018-06-02T08:06:39.190Z,15.77
2018-06-02T08:07:39.180Z,15.84
2018-06-02T08:08:39.202Z,15.91
2018-06-02T08:09:39.235Z,15.92
2018-06-02T08:10:39.211Z,15.86
2018-06-02T08:11:39.227Z,15.91
2018-06-02T08:12:39.261Z,15.96
2018-06-02T08:13:39.275Z,15.95
2018-06-02T08:14:39.285Z,15.96
2018-06-02T08:15:39.431Z,15.92
2018-06-02T08:16:39.284Z,15.95
2018-06-02T08:17:39.315Z,15.98
2018-06-02T08:18:39.311Z,15.89
2018-06-02T08:19:39.342Z,15.92
2018-06-02T08:20:39.484Z,16.13
2018-06-02T08:21:39.363Z,16.13
2018-06-02T08:22:39.385Z,16.00
2018-06-02T08:23:39.385Z,16.18
2018-06-02T08:24:39.408Z,16.07
2018-06-02T08:25:39.573Z,16.13
2018-06-02T08:26:39.459Z,16.13
2018-06-02T08:27:39.419Z,16.18
2018-06-02T08:28:39.435Z,16.18
2018-06-02T08:29:39.447Z,16.26
2018-06-02T08:30:39.566Z,16.25
2018-06-02T08:31:39.495Z,16.26
2018-06-02T08:32:39.512Z,16.26
2018-06-02T08:33:39.595Z,16.21
2018-06-02T08:34:39.504Z,16.25
2018-06-02T08:35:39.696Z,16.29
2018-06-02T08:36:39.559Z,16.18
2018-06-02T08:37:39.545Z,16.32
2018-06-02T08:38:39.584Z,16.27
2018-06-02T08:39:39.570Z,16.26
2018-06-02T08:40:39.706Z,16.32
2018-06-02T08:41:39.594Z,16.34
2018-06-02T08:42:39.604Z,16.33
2018-06-02T08:43:39.620Z,16.37
2018-06-02T08:44:39.638Z,16.37
2018-06-02T08:45:39.772Z,16.33
2018-06-02T08:46:39.654Z,16.48
2018-06-02T08:47:39.667Z,16.45
2018-06-02T08:48:39.689Z,16.42
2018-06-02T08:49:39.709Z,16.54
2018-06-02T08:50:39.807Z,16.52
2018-06-02T08:51:39.721Z,16.51
2018-06-02T08:52:39.755Z,16.58
2018-06-02T08:53:39.775Z,16.59
2018-06-02T08:54:39.756Z,16.63
2018-06-02T08:55:39.868Z,16.65
2018-06-02T08:56:39.808Z,16.59
2018-06-02T08:57:39.820Z,16.57
2018-06-02T08:58:39.830Z,16.69
2018-06-02T08:59:39.843Z,16.76
2018-06-02T09:00:39.960Z,16.62
2018-06-02T09:01:39.869Z,16.76
2018-06-02T09:02:39.861Z,16.69
2018-06-02T09:03:39.867Z,16.72
2018-06-02T09:04:39.882Z,16.62
2018-06-02T09:05:39.909Z,16.72
2018-06-02T09:06:40.003Z,16.70
2018-06-02T09:07:39.921Z,16.74
2018-06-02T09:08:39.956Z,16.70
2018-06-02T09:09:39.949Z,16.74
2018-06-02T09:10:39.958Z,16.80
2018-06-02T09:11:40.071Z,16.72
2018-06-02T09:12:39.995Z,16.77
2018-06-02T09:13:40.024Z,16.77
2018-06-02T09:14:40.006Z,16.73
2018-06-02T09:15:40.091Z,16.80
2018-06-02T09:16:40.141Z,16.81
2018-06-02T09:17:40.075Z,16.67
2018-06-02T09:18:40.067Z,16.82
2018-06-02T09:19:40.098Z,16.70
2018-06-02T09:20:40.085Z,16.81
2018-06-02T09:21:40.224Z,16.82
2018-06-02T09:22:40.112Z,16.81
2018-06-02T09:23:40.129Z,16.77
2018-06-02T09:24:40.132Z,16.80
2018-06-02T09:25:40.154Z,16.76
2018-06-02T09:26:40.263Z,16.74
2018-06-02T09:27:40.200Z,16.82
2018-06-02T09:28:40.214Z,16.80
2018-06-02T09:29:40.196Z,16.81
2018-06-02T09:30:40.236Z,16.82
2018-06-02T09:31:40.351Z,16.80
2018-06-02T09:32:40.242Z,16.82
2018-06-02T09:34:40.262Z,16.88
2018-06-02T09:35:40.303Z,16.91
2018-06-02T09:36:40.418Z,16.97
2018-06-02T09:37:40.300Z,17.02
2018-06-02T09:38:40.338Z,16.91
2018-06-02T09:39:40.327Z,16.95
2018-06-02T09:40:40.366Z,17.07
2018-06-02T09:41:40.509Z,16.99
2018-06-02T09:42:40.364Z,17.05
2018-06-02T09:43:40.373Z,17.09
2018-06-02T09:44:40.428Z,17.05
2018-06-02T09:45:40.403Z,17.05
2018-06-02T09:46:40.526Z,17.05
2018-06-02T09:47:40.444Z,17.02
2018-06-02T09:48:40.436Z,17.06
2018-06-02T09:49:40.452Z,17.12
2018-06-02T09:50:40.476Z,17.06
2018-06-02T09:51:40.611Z,17.09
2018-06-02T09:52:40.519Z,17.13
2018-06-02T09:53:40.537Z,17.13
2018-06-02T09:54:40.514Z,17.10
2018-06-02T09:55:40.559Z,17.13
2018-06-02T09:56:40.651Z,17.18
2018-06-02T09:57:40.588Z,17.13
2018-06-02T09:58:40.596Z,17.13
2018-06-02T09:59:40.608Z,17.20
2018-06-02T10:00:40.593Z,17.20
2018-06-02T10:01:40.713Z,17.13
2018-06-02T10:02:40.647Z,17.20
2018-06-02T10:03:40.642Z,17.13
2018-06-02T10:04:40.699Z,17.12
2018-06-02T10:05:40.685Z,17.10
2018-06-02T10:06:40.781Z,17.13
2018-06-02T10:07:40.696Z,17.22
2018-06-02T10:08:40.694Z,17.17
2018-06-02T10:09:40.722Z,17.15
2018-06-02T10:10:40.720Z,17.20
2018-06-02T10:11:40.864Z,17.17
2018-06-02T10:12:40.748Z,17.15
2018-06-02T10:13:40.765Z,17.13
2018-06-02T10:14:40.805Z,17.15
2018-06-02T10:15:40.816Z,17.27
2018-06-02T10:16:40.929Z,17.22
2018-06-02T10:17:40.817Z,17.22
2018-06-02T10:18:40.827Z,17.22
2018-06-02T10:19:40.866Z,17.21
2018-06-02T10:20:40.883Z,17.22
2018-06-02T10:21:40.911Z,17.25
2018-06-02T10:22:41.005Z,17.22
2018-06-02T10:23:40.918Z,17.24
2018-06-02T10:24:40.930Z,17.24
2018-06-02T10:25:40.937Z,17.22
2018-06-02T10:26:40.959Z,17.24
2018-06-02T10:27:41.096Z,17.24
2018-06-02T10:28:40.989Z,17.27
2018-06-02T10:29:40.992Z,17.22
2018-06-02T10:30:41.012Z,17.25
2018-06-02T10:31:40.996Z,17.24
2018-06-02T10:32:41.139Z,17.17
2018-06-02T10:33:41.021Z,17.22
2018-06-02T10:34:41.041Z,17.21
2018-06-02T10:35:41.199Z,17.15
2018-06-02T10:36:41.056Z,17.13
2018-06-02T10:37:41.201Z,17.22
2018-06-02T10:38:41.098Z,17.20
2018-06-02T10:39:41.100Z,17.25
2018-06-02T10:40:41.122Z,17.36
2018-06-02T10:41:41.134Z,17.32
2018-06-02T10:42:41.254Z,17.38
2018-06-02T10:43:41.154Z,17.35
2018-06-02T10:44:41.221Z,17.36
2018-06-02T10:45:41.205Z,17.47
2018-06-02T10:46:41.200Z,17.45
2018-06-02T10:47:41.364Z,17.45
2018-06-02T10:48:41.244Z,17.55
2018-06-02T10:49:41.237Z,17.54
2018-06-02T10:50:41.258Z,17.50
2018-06-02T10:51:41.286Z,17.55
2018-06-02T10:52:41.379Z,17.55
2018-06-02T10:53:41.314Z,17.63
2018-06-02T10:54:41.301Z,17.68
2018-06-02T10:55:41.310Z,17.65
2018-06-02T10:56:41.337Z,17.76
2018-06-02T10:57:41.467Z,17.81
2018-06-02T10:58:41.361Z,17.92
2018-06-02T10:59:41.370Z,17.92
2018-06-02T11:00:41.386Z,17.87
2018-06-02T11:01:41.447Z,17.98
2018-06-02T11:02:41.516Z,17.98
2018-06-02T11:03:41.418Z,18.01
2018-06-02T11:04:41.458Z,18.03
2018-06-02T11:05:41.455Z,17.99
2018-06-02T11:06:41.463Z,18.06
2018-06-02T11:07:41.620Z,18.10
2018-06-02T11:08:41.486Z,18.13
2018-06-02T11:09:41.529Z,18.11
2018-06-02T11:10:41.513Z,18.16
2018-06-02T11:11:41.560Z,18.27
2018-06-02T11:12:41.645Z,18.23
2018-06-02T11:13:41.561Z,18.23
2018-06-02T11:14:41.597Z,18.24
2018-06-02T11:15:41.590Z,18.29
2018-06-02T11:16:41.600Z,18.27
2018-06-02T11:17:41.740Z,18.27
2018-06-02T11:18:41.655Z,18.26
2018-06-02T11:19:41.654Z,18.32
2018-06-02T11:20:41.659Z,18.31
2018-06-02T11:21:41.667Z,18.32
2018-06-02T11:22:41.838Z,18.32
2018-06-02T11:23:41.726Z,18.27
2018-06-02T11:24:41.743Z,18.42
2018-06-02T11:25:41.778Z,18.32
2018-06-02T11:26:41.749Z,18.53
2018-06-02T11:27:41.866Z,18.50
2018-06-02T11:28:41.797Z,18.60
2018-06-02T11:29:41.778Z,18.59
2018-06-02T11:30:41.801Z,18.65
2018-06-02T11:31:41.812Z,18.72
2018-06-02T11:32:41.931Z,18.82
2018-06-02T11:33:41.864Z,18.89
2018-06-02T11:34:41.865Z,18.93
2018-06-02T11:35:41.868Z,18.99
2018-06-02T11:36:41.913Z,19.06
2018-06-02T11:37:42.072Z,19.02
2018-06-02T11:38:41.937Z,19.15
2018-06-02T11:39:41.964Z,19.24
2018-06-02T11:40:41.939Z,19.24
2018-06-02T11:41:41.957Z,19.32
2018-06-02T11:42:42.120Z,19.37
2018-06-02T11:43:41.981Z,19.47
2018-06-02T11:44:42.002Z,19.55
2018-06-02T11:45:42.009Z,19.55
2018-06-02T11:46:42.058Z,19.55
2018-06-02T11:47:42.146Z,19.68
2018-06-02T11:48:42.085Z,19.68
2018-06-02T11:49:42.083Z,19.75
2018-06-02T11:50:42.097Z,19.86
2018-06-02T11:51:42.136Z,19.95
2018-06-02T11:52:42.251Z,19.95
2018-06-02T11:53:42.140Z,20.11
2018-06-02T11:54:42.180Z,20.12
2018-06-02T11:55:42.169Z,20.11
2018-06-02T11:56:42.182Z,20.19
2018-06-02T11:57:42.330Z,20.25
2018-06-02T11:58:42.217Z,20.37
2018-06-02T11:59:42.255Z,20.30
2018-06-02T12:00:42.257Z,20.25
2018-06-02T12:01:42.263Z,20.34
2018-06-02T12:02:42.456Z,20.29
2018-06-02T12:03:42.297Z,20.38
2018-06-02T12:04:42.342Z,20.35
2018-06-02T12:05:42.329Z,20.46
2018-06-02T12:06:42.341Z,20.35
2018-06-02T12:07:42.466Z,20.35
2018-06-02T12:08:42.405Z,20.49
2018-06-02T12:09:42.417Z,20.35
2018-06-02T12:10:42.415Z,20.46
2018-06-02T12:11:42.425Z,20.60
2018-06-02T12:12:42.546Z,20.67
2018-06-02T12:13:42.488Z,20.76
2018-06-02T12:14:42.474Z,20.91
2018-06-02T12:15:42.487Z,20.97
2018-06-02T12:16:42.506Z,21.03
2018-06-02T12:17:42.630Z,21.00
2018-06-02T12:18:42.566Z,21.01
2018-06-02T12:19:42.567Z,21.06
2018-06-02T12:20:42.601Z,21.11
2018-06-02T12:21:42.613Z,21.28
2018-06-02T12:22:42.782Z,21.25
2018-06-02T12:23:42.634Z,21.23
2018-06-02T12:24:42.638Z,21.28
2018-06-02T12:25:42.683Z,21.28
2018-06-02T12:26:42.687Z,21.36
2018-06-02T12:27:42.865Z,21.40
2018-06-02T12:28:42.739Z,21.43
2018-06-02T12:29:42.726Z,21.52
2018-06-02T12:30:42.755Z,21.46
2018-06-02T12:31:42.783Z,21.49
2018-06-02T12:32:42.951Z,21.58
2018-06-02T12:33:42.818Z,21.53
2018-06-02T12:34:42.824Z,21.67
2018-06-02T12:35:42.856Z,21.58
2018-06-02T12:36:42.870Z,21.52
2018-06-02T12:37:42.862Z,21.49
2018-06-02T12:38:43.029Z,21.46
2018-06-02T12:39:42.898Z,21.52
2018-06-02T12:40:42.937Z,21.52
2018-06-02T12:41:42.939Z,21.62
2018-06-02T12:42:42.970Z,21.53
2018-06-02T12:43:43.123Z,21.62
2018-06-02T12:44:42.998Z,21.64
2018-06-02T12:45:43.024Z,21.55
2018-06-02T12:46:43.028Z,21.64
2018-06-02T12:47:43.105Z,21.71
2018-06-02T12:48:43.226Z,21.70
2018-06-02T12:49:43.098Z,21.74
2018-06-02T12:50:43.089Z,21.68
2018-06-02T12:51:43.100Z,21.89
2018-06-02T12:52:43.116Z,21.83
2018-06-02T12:53:43.287Z,21.83